Time;durP1;ratioP1;P1;durP2;ratioP2;P2;SDS_P1;SDS_P2;PMS_P1;PMS_P2;Temp;Humidity;BMP_temperature;BMP_pressure;BME280_temperature;BME280_humidity;BME280_pressure;Samples;Min_cycle;Max_cycle;Signal;HPM_P1;HPM_P2
2024/01/11 00:01:55;;;;;;;42.90;19.83;;;-1.20;88.50;;;;;;5066484;28;21047;-64
2024/01/11 00:04:23;;;;;;;44.97;21.27;;;-1.20;88.40;;;;;;5062306;28;20493;-64
2024/01/11 00:06:51;;;;;;;38.47;17.90;;;-1.20;88.80;;;;;;5027584;28;20523;-63
2024/01/11 00:09:18;;;;;;;40.73;21.40;;;-1.40;88.30;;;;;;5058390;28;20462;-64
2024/01/11 00:11:45;;;;;;;41.87;20.60;;;-1.30;89.00;;;;;;5065187;28;20474;-64
2024/01/11 00:14:12;;;;;;;43.67;19.90;;;-1.40;88.90;;;;;;5070838;28;20467;-64
2024/01/11 00:16:39;;;;;;;37.00;18.50;;;-1.40;89.00;;;;;;5072814;28;20491;-64
2024/01/11 00:19:06;;;;;;;37.97;18.00;;;-1.40;89.00;;;;;;5077017;28;20546;-64
2024/01/11 00:21:34;;;;;;;61.97;18.97;;;-1.60;88.90;;;;;;5064152;28;20475;-64
2024/01/11 00:24:01;;;;;;;46.20;19.17;;;;;;;;;;5056641;28;20475;-64
2024/01/11 00:26:28;;;;;;;39.33;18.27;;;-1.70;89.30;;;;;;5049719;28;20608;-64
2024/01/11 00:28:55;;;;;;;74.40;21.63;;;-1.70;89.20;;;;;;5048047;28;20529;-63
2024/01/11 00:31:22;;;;;;;44.77;21.17;;;-1.80;89.20;;;;;;5044928;28;20856;-64
2024/01/11 00:33:48;;;;;;;40.93;20.67;;;-1.80;89.60;;;;;;5050266;28;20486;-64
2024/01/11 00:36:20;;;;;;;46.93;18.70;;;-1.60;90.00;;;;;;5069573;28;20479;-64
2024/01/11 00:38:48;;;;;;;46.47;19.87;;;-1.50;90.10;;;;;;5078686;28;20823;-64
2024/01/11 00:41:15;;;;;;;37.73;20.13;;;-1.50;90.20;;;;;;5042320;28;20483;-64
2024/01/11 00:43:42;;;;;;;53.90;20.00;;;-1.40;90.00;;;;;;5079495;28;20638;-64
2024/01/11 00:46:09;;;;;;;41.17;20.60;;;-1.30;90.00;;;;;;5069015;28;20489;-64
2024/01/11 00:48:35;;;;;;;47.67;21.00;;;-1.30;89.80;;;;;;5075162;28;20772;-64
2024/01/11 00:51:04;;;;;;;52.13;20.67;;;-1.30;90.00;;;;;;5063123;28;20516;-64
2024/01/11 00:53:31;;;;;;;43.07;19.73;;;-1.30;90.00;;;;;;5071837;28;21079;-64
2024/01/11 00:55:59;;;;;;;59.30;20.43;;;-1.30;90.00;;;;;;5068939;28;20531;-64
2024/01/11 00:58:26;;;;;;;40.60;19.90;;;-1.20;90.00;;;;;;5079515;28;20474;-64
2024/01/11 01:00:54;;;;;;;42.10;22.73;;;-1.30;89.90;;;;;;5075767;28;20502;-64
2024/01/11 01:03:21;;;;;;;35.40;18.43;;;-1.20;90.00;;;;;;5062865;28;20537;-64
2024/01/11 01:05:48;;;;;;;39.50;20.30;;;-1.20;89.90;;;;;;5072042;28;20491;-64
2024/01/11 01:08:15;;;;;;;45.00;19.00;;;-1.30;89.60;;;;;;5075103;28;20996;-64
2024/01/11 01:10:43;;;;;;;51.03;19.70;;;-1.30;89.70;;;;;;5046083;28;21236;-63
2024/01/11 01:13:11;;;;;;;46.17;21.57;;;-1.30;89.80;;;;;;5064195;28;20548;-64
2024/01/11 01:15:38;;;;;;;42.00;19.70;;;-1.30;90.00;;;;;;5075204;28;20469;-65
2024/01/11 01:18:05;;;;;;;46.77;20.23;;;-1.50;89.70;;;;;;5076122;28;20497;-64
2024/01/11 01:20:32;;;;;;;37.00;18.70;;;-1.50;90.10;;;;;;5052811;28;20489;-65
2024/01/11 01:22:59;;;;;;;47.73;20.77;;;-1.50;90.00;;;;;;5059957;28;20536;-65
2024/01/11 01:25:26;;;;;;;40.60;19.37;;;-1.50;90.40;;;;;;5047559;28;20486;-66
2024/01/11 01:27:53;;;;;;;40.80;21.30;;;-1.50;90.40;;;;;;5067761;28;20503;-65
2024/01/11 01:30:21;;;;;;;59.73;20.13;;;;;;;;;;5073295;28;20840;-65
2024/01/11 01:32:48;;;;;;;34.83;20.17;;;-1.60;90.10;;;;;;5066903;28;20482;-65
2024/01/11 01:35:15;;;;;;;49.07;19.30;;;-1.60;90.20;;;;;;5066655;28;20478;-65
2024/01/11 01:37:42;;;;;;;56.47;20.47;;;-1.70;90.20;;;;;;5068574;28;20474;-64
2024/01/11 01:40:10;;;;;;;52.47;21.10;;;-1.70;90.40;;;;;;5072305;28;20509;-65
2024/01/11 01:42:41;;;;;;;45.40;19.20;;;-1.70;90.30;;;;;;5061625;28;20475;-65
2024/01/11 01:45:09;;;;;;;46.43;18.30;;;-1.80;90.20;;;;;;5062288;28;20472;-65
2024/01/11 01:47:38;;;;;;;52.63;20.10;;;-1.80;90.30;;;;;;5074341;28;20480;-64
2024/01/11 01:50:06;;;;;;;45.67;20.70;;;-1.80;90.50;;;;;;5066951;28;20474;-65
2024/01/11 01:52:35;;;;;;;34.00;18.60;;;-1.90;90.50;;;;;;5068188;28;20762;-65
2024/01/11 01:55:04;;;;;;;34.60;18.53;;;-1.90;90.50;;;;;;5065932;28;20482;-64
2024/01/11 01:57:33;;;;;;;49.13;21.50;;;-1.90;90.50;;;;;;5066107;28;20557;-65
2024/01/11 02:00:01;;;;;;;48.07;19.60;;;-1.90;90.50;;;;;;5071484;28;20470;-65
2024/01/11 02:02:29;;;;;;;45.83;20.57;;;-1.90;90.50;;;;;;5063087;28;20536;-64
2024/01/11 02:04:58;;;;;;;57.67;17.97;;;-1.90;90.50;;;;;;5068283;28;20483;-64
2024/01/11 02:07:25;;;;;;;44.50;19.97;;;-1.90;90.40;;;;;;5050558;28;21447;-64
2024/01/11 02:09:53;;;;;;;43.87;19.20;;;-1.80;90.50;;;;;;5034967;28;20887;-64
2024/01/11 02:12:21;;;;;;;53.17;19.37;;;-1.80;90.40;;;;;;5055836;28;20475;-64
2024/01/11 02:14:47;;;;;;;42.60;20.00;;;-1.80;90.20;;;;;;5060373;28;20474;-64
2024/01/11 02:17:14;;;;;;;42.83;19.90;;;-1.80;90.20;;;;;;5071014;28;20467;-65
2024/01/11 02:19:42;;;;;;;47.47;21.20;;;-1.80;90.20;;;;;;5070048;28;20479;-65
2024/01/11 02:22:18;;;;;;;36.67;19.87;;;-1.80;90.20;;;;;;5064470;28;20892;-64
2024/01/11 02:24:46;;;;;;;42.47;20.20;;;-1.80;90.10;;;;;;5019604;28;20545;-67
2024/01/11 02:27:13;;;;;;;36.20;19.40;;;-1.90;90.00;;;;;;5058664;28;20532;-67
2024/01/11 02:29:40;;;;;;;38.43;20.70;;;-1.90;90.10;;;;;;5079240;28;20486;-66
2024/01/11 02:32:08;;;;;;;43.10;22.47;;;-1.90;90.40;;;;;;5052095;28;20497;-66
2024/01/11 02:34:36;;;;;;;40.90;19.87;;;-1.90;90.60;;;;;;5064695;28;21063;-67
2024/01/11 02:37:03;;;;;;;62.30;21.10;;;-1.90;90.50;;;;;;5063142;28;20506;-67
2024/01/11 02:39:30;;;;;;;74.17;20.83;;;-1.90;90.20;;;;;;5070263;28;21244;-66
2024/01/11 02:41:59;;;;;;;44.97;21.70;;;-1.90;90.30;;;;;;5062365;28;20478;-67
2024/01/11 02:44:26;;;;;;;36.33;20.10;;;-1.90;90.40;;;;;;5072403;28;20532;-66
2024/01/11 02:46:53;;;;;;;39.20;19.93;;;-1.90;90.30;;;;;;5067232;28;20992;-66
2024/01/11 02:49:20;;;;;;;53.10;20.40;;;-1.90;90.30;;;;;;5070920;28;20871;-67
2024/01/11 02:51:47;;;;;;;36.47;18.57;;;-1.90;90.30;;;;;;5067193;28;20467;-67
2024/01/11 02:54:14;;;;;;;44.50;19.57;;;-2.00;90.00;;;;;;5046816;28;20480;-67
2024/01/11 02:56:41;;;;;;;36.80;17.63;;;-2.00;90.10;;;;;;5061787;28;20506;-67
2024/01/11 02:59:10;;;;;;;34.47;18.57;;;-2.10;90.10;;;;;;5075077;28;20474;-67
2024/01/11 03:01:37;;;;;;;50.57;21.80;;;-2.00;90.30;;;;;;5067589;28;20475;-67
2024/01/11 03:04:03;;;;;;;46.23;21.07;;;-2.10;90.40;;;;;;5071440;28;20478;-66
2024/01/11 03:06:30;;;;;;;55.13;22.37;;;-2.10;90.40;;;;;;5077048;28;20483;-66
2024/01/11 03:08:57;;;;;;;58.10;22.00;;;-2.10;90.30;;;;;;5063740;28;20555;-67
2024/01/11 03:11:24;;;;;;;54.43;20.30;;;-2.10;90.30;;;;;;5068010;28;20986;-66
2024/01/11 03:13:51;;;;;;;55.03;21.40;;;-2.20;90.40;;;;;;5065363;28;20550;-67
2024/01/11 03:16:19;;;;;;;50.67;22.10;;;-2.20;90.50;;;;;;5068867;28;20480;-67
2024/01/11 03:18:46;;;;;;;34.77;18.70;;;-2.20;90.60;;;;;;5067061;28;20478;-67
2024/01/11 03:21:13;;;;;;;40.53;19.97;;;;;;;;;;5073208;28;20583;-67
2024/01/11 03:23:40;;;;;;;55.50;20.73;;;-2.20;90.70;;;;;;5074348;28;20490;-67
2024/01/11 03:26:14;;;;;;;36.57;17.20;;;-2.20;90.70;;;;;;5074717;28;20509;-67
2024/01/11 03:28:41;;;;;;;46.47;20.30;;;-2.10;90.80;;;;;;5053346;28;20613;-67
2024/01/11 03:31:09;;;;;;;35.87;15.17;;;-2.20;90.70;;;;;;5018327;28;20966;-66
2024/01/11 03:33:37;;;;;;;32.33;18.60;;;-2.40;90.40;;;;;;5058035;28;20490;-66
2024/01/11 03:36:08;;;;;;;41.67;18.10;;;-2.70;90.90;;;;;;5062264;28;20874;-67
2024/01/11 03:38:35;;;;;;;42.50;19.20;;;-2.80;91.10;;;;;;5070161;28;20490;-66
2024/01/11 03:41:02;;;;;;;83.40;20.63;;;-2.60;91.40;;;;;;5071703;28;20852;-66
2024/01/11 03:43:29;;;;;;;43.57;20.50;;;-2.50;91.50;;;;;;5059275;28;20551;-66
2024/01/11 03:45:56;;;;;;;49.73;19.63;;;-2.40;91.60;;;;;;5046136;28;20533;-66
2024/01/11 03:48:23;;;;;;;50.90;20.20;;;-2.40;91.50;;;;;;5069324;28;20471;-66
2024/01/11 03:50:51;;;;;;;46.57;19.93;;;-2.30;91.50;;;;;;5069764;28;20748;-66
2024/01/11 03:53:18;;;;;;;45.30;22.00;;;-2.30;91.40;;;;;;5062399;28;20551;-66
2024/01/11 03:55:45;;;;;;;47.60;20.37;;;-2.20;91.60;;;;;;5070421;28;20539;-66
2024/01/11 03:58:12;;;;;;;54.13;20.20;;;-2.20;91.50;;;;;;5037325;28;20536;-67
2024/01/11 04:00:39;;;;;;;37.70;17.90;;;-2.20;91.30;;;;;;5057585;28;20559;-66
2024/01/11 04:03:07;;;;;;;56.67;20.20;;;-2.10;91.40;;;;;;5067926;28;20476;-66
2024/01/11 04:05:34;;;;;;;45.57;20.33;;;-2.10;91.30;;;;;;5067480;28;20474;-66
2024/01/11 04:08:05;;;;;;;47.10;20.83;;;-2.10;91.30;;;;;;5070821;28;20927;-66
2024/01/11 04:10:31;;;;;;;41.10;17.47;;;-2.10;91.10;;;;;;5071902;28;20486;-67
2024/01/11 04:12:59;;;;;;;42.10;19.30;;;-2.10;91.10;;;;;;5069948;28;20479;-67
2024/01/11 04:15:27;;;;;;;54.20;18.30;;;;;;;;;;5066916;28;20498;-67
2024/01/11 04:17:53;;;;;;;40.90;19.40;;;-2.10;91.40;;;;;;5074997;28;20485;-67
2024/01/11 04:20:20;;;;;;;50.60;18.53;;;-2.10;91.10;;;;;;5072497;28;20481;-67
2024/01/11 04:22:47;;;;;;;50.67;21.23;;;-2.20;91.20;;;;;;5064402;28;20482;-67
2024/01/11 04:25:15;;;;;;;36.30;19.40;;;-2.20;91.10;;;;;;5059991;28;20806;-66
2024/01/11 04:27:42;;;;;;;36.67;20.03;;;-2.20;91.40;;;;;;5062994;28;20475;-66
2024/01/11 04:30:10;;;;;;;66.90;19.57;;;-2.20;91.60;;;;;;5074256;28;20466;-66
2024/01/11 04:32:37;;;;;;;43.90;19.10;;;-2.10;91.60;;;;;;5059717;28;20475;-66
2024/01/11 04:35:04;;;;;;;46.03;20.93;;;-2.10;91.60;;;;;;5072607;28;20860;-67
2024/01/11 04:37:31;;;;;;;65.00;22.80;;;-2.00;91.50;;;;;;5066945;28;20548;-66
2024/01/11 04:39:59;;;;;;;44.30;20.93;;;-2.00;91.30;;;;;;5072526;28;20485;-67
2024/01/11 04:42:28;;;;;;;48.23;20.47;;;-2.00;91.40;;;;;;5064404;28;20487;-66
2024/01/11 04:44:55;;;;;;;40.77;19.50;;;-2.10;91.00;;;;;;5065085;28;20525;-64
2024/01/11 04:47:22;;;;;;;35.90;19.53;;;-2.10;91.10;;;;;;5066724;28;20838;-64
2024/01/11 04:49:49;;;;;;;54.93;19.57;;;-2.20;91.30;;;;;;5069785;28;20483;-64
2024/01/11 04:52:16;;;;;;;39.20;19.10;;;-2.10;91.40;;;;;;5062476;28;21180;-64
2024/01/11 04:54:43;;;;;;;65.27;21.53;;;-2.10;91.40;;;;;;5068876;28;20475;-64
2024/01/11 04:57:10;;;;;;;46.23;19.70;;;-2.10;91.30;;;;;;5064108;28;20474;-64
2024/01/11 04:59:38;;;;;;;44.70;20.47;;;-2.10;91.40;;;;;;5066324;28;20575;-64
2024/01/11 05:02:05;;;;;;;44.23;20.60;;;-2.10;91.50;;;;;;5072181;28;20474;-64
2024/01/11 05:04:32;;;;;;;52.47;18.77;;;-2.10;91.60;;;;;;5075917;28;20543;-64
2024/01/11 05:06:59;;;;;;;49.50;20.30;;;-2.00;91.60;;;;;;5072225;28;20487;-65
2024/01/11 05:09:25;;;;;;;47.23;20.80;;;-2.00;91.60;;;;;;5067888;28;20491;-65
2024/01/11 05:11:52;;;;;;;45.43;18.43;;;-2.00;91.60;;;;;;5068333;28;20486;-64
2024/01/11 05:14:19;;;;;;;41.00;21.13;;;-2.10;91.30;;;;;;5072747;28;20482;-64
2024/01/11 05:16:48;;;;;;;46.07;19.30;;;-2.10;91.20;;;;;;5068878;28;20905;-65
2024/01/11 05:19:14;;;;;;;37.10;18.37;;;-2.10;91.50;;;;;;5072519;28;20471;-64
2024/01/11 05:21:41;;;;;;;39.47;18.70;;;-2.20;91.50;;;;;;5070359;28;20532;-65
2024/01/11 05:24:08;;;;;;;44.03;19.73;;;-2.30;91.50;;;;;;5065057;28;20536;-64
2024/01/11 05:26:35;;;;;;;51.47;19.20;;;-2.20;91.60;;;;;;5076185;28;20482;-65
2024/01/11 05:29:04;;;;;;;45.53;19.80;;;-2.30;91.60;;;;;;5069846;28;20540;-64
2024/01/11 05:31:30;;;;;;;50.37;19.10;;;-2.20;91.90;;;;;;5058830;28;20503;-65
2024/01/11 05:33:59;;;;;;;48.20;21.17;;;-2.20;91.80;;;;;;5074256;28;20600;-64
2024/01/11 05:36:26;;;;;;;40.10;18.47;;;-2.20;91.90;;;;;;5062314;28;20893;-64
2024/01/11 05:38:53;;;;;;;45.60;19.87;;;-2.10;91.70;;;;;;5076349;28;20474;-64
2024/01/11 05:41:19;;;;;;;57.43;22.33;;;-2.10;91.70;;;;;;5074282;28;20548;-64
2024/01/11 05:43:46;;;;;;;51.60;20.80;;;-2.20;91.60;;;;;;5068122;28;20483;-64
2024/01/11 05:46:13;;;;;;;37.20;17.77;;;-2.20;91.60;;;;;;5076349;28;20470;-66
2024/01/11 05:48:40;;;;;;;40.33;18.73;;;-2.20;91.70;;;;;;5073868;28;20491;-66
2024/01/11 05:51:09;;;;;;;40.20;21.17;;;-2.20;91.60;;;;;;5066673;28;20978;-66
2024/01/11 05:53:36;;;;;;;42.87;20.43;;;-2.20;91.80;;;;;;5071562;28;20486;-66
2024/01/11 05:56:03;;;;;;;45.70;20.60;;;-2.20;91.80;;;;;;5076830;28;20486;-66
2024/01/11 05:58:30;;;;;;;45.57;21.17;;;-2.10;91.90;;;;;;5062171;28;20482;-66
2024/01/11 06:00:57;;;;;;;43.53;19.60;;;-2.20;91.70;;;;;;5063515;28;20482;-66
2024/01/11 06:03:24;;;;;;;36.83;19.50;;;-2.20;91.80;;;;;;5053914;28;20490;-67
2024/01/11 06:05:52;;;;;;;58.57;20.63;;;;;;;;;;5043212;28;20657;-66
2024/01/11 06:08:20;;;;;;;34.77;15.60;;;-2.30;91.80;;;;;;5066569;28;20989;-67
2024/01/11 06:10:47;;;;;;;39.40;17.77;;;-2.40;91.80;;;;;;5062786;28;20476;-66
2024/01/11 06:13:13;;;;;;;49.23;19.30;;;-2.50;91.90;;;;;;5060966;28;20921;-67
2024/01/11 06:15:40;;;;;;;66.37;21.40;;;-2.60;92.20;;;;;;5069524;28;20827;-66
2024/01/11 06:18:07;;;;;;;38.87;17.83;;;-2.50;92.30;;;;;;5065336;28;20516;-66
2024/01/11 06:20:34;;;;;;;49.40;20.37;;;-2.40;92.30;;;;;;5058236;28;20720;-66
2024/01/11 06:23:01;;;;;;;40.93;20.10;;;-2.30;92.30;;;;;;5047617;28;20498;-67
2024/01/11 06:25:29;;;;;;;34.53;17.70;;;-2.30;92.20;;;;;;5066131;28;20482;-66
2024/01/11 06:27:56;;;;;;;49.70;21.00;;;-2.30;92.00;;;;;;5075636;28;20536;-67
2024/01/11 06:30:23;;;;;;;33.97;19.70;;;-2.20;92.10;;;;;;5063553;28;20482;-66
2024/01/11 06:32:50;;;;;;;44.43;19.67;;;-2.20;91.90;;;;;;5068663;28;20900;-66
2024/01/11 06:35:17;;;;;;;42.53;22.30;;;-2.20;92.00;;;;;;5077655;28;20474;-67
2024/01/11 06:37:44;;;;;;;42.23;19.17;;;-2.10;92.00;;;;;;5069814;28;20989;-66
2024/01/11 06:40:12;;;;;;;60.23;21.73;;;-2.10;92.10;;;;;;5061039;28;21142;-66
2024/01/11 06:42:39;;;;;;;43.63;18.80;;;-2.00;92.00;;;;;;5070232;28;20526;-66
2024/01/11 06:45:07;;;;;;;51.90;22.40;;;-2.00;92.00;;;;;;5069754;28;20486;-67
2024/01/11 06:47:35;;;;;;;52.63;22.40;;;-2.00;92.20;;;;;;5061298;28;20495;-67
2024/01/11 06:50:02;;;;;;;47.03;20.80;;;-2.00;92.10;;;;;;5060923;28;20482;-66
2024/01/11 06:52:29;;;;;;;48.73;19.70;;;-2.00;91.90;;;;;;5065887;28;20539;-66
2024/01/11 06:54:56;;;;;;;43.87;20.17;;;-2.00;91.90;;;;;;5069582;28;20535;-66
2024/01/11 06:57:24;;;;;;;44.23;20.17;;;-2.10;91.70;;;;;;5057595;28;20490;-64
2024/01/11 06:59:52;;;;;;;50.37;20.20;;;-2.20;92.00;;;;;;5062472;28;20515;-64
2024/01/11 07:02:19;;;;;;;42.33;21.13;;;-2.30;91.80;;;;;;5061860;28;20467;-64
2024/01/11 07:04:46;;;;;;;45.07;20.87;;;-2.30;91.90;;;;;;5058141;28;20540;-64
2024/01/11 07:07:13;;;;;;;38.87;18.63;;;-2.30;92.20;;;;;;5070731;28;20541;-64
2024/01/11 07:09:40;;;;;;;45.93;19.70;;;-2.30;92.30;;;;;;5073081;28;20490;-64
2024/01/11 07:12:07;;;;;;;42.37;20.40;;;-2.30;92.40;;;;;;5065792;28;20943;-65
2024/01/11 07:14:34;;;;;;;67.97;19.73;;;-2.20;92.30;;;;;;5053922;28;21236;-64
2024/01/11 07:17:03;;;;;;;52.73;23.53;;;-2.10;92.40;;;;;;5067154;28;20486;-64
2024/01/11 07:19:30;;;;;;;45.57;19.87;;;-2.10;92.20;;;;;;5065744;28;20903;-64
2024/01/11 07:21:57;;;;;;;69.83;23.23;;;-2.10;92.20;;;;;;5067383;28;20693;-64
2024/01/11 07:24:25;;;;;;;56.73;22.07;;;;;;;;;;5069199;28;20907;-64
2024/01/11 07:26:51;;;;;;;53.73;26.87;;;-2.10;92.20;;;;;;5062520;28;20783;-64
2024/01/11 07:29:18;;;;;;;56.27;22.10;;;-2.10;92.30;;;;;;5069370;28;20837;-64
2024/01/11 07:31:45;;;;;;;46.10;22.80;;;-2.10;92.50;;;;;;5037573;28;20939;-64
2024/01/11 07:34:13;;;;;;;33.07;18.60;;;-2.10;92.60;;;;;;5053473;28;20903;-64
2024/01/11 07:36:40;;;;;;;48.67;20.63;;;-2.00;92.70;;;;;;5045992;28;20472;-64
2024/01/11 07:39:07;;;;;;;45.63;20.03;;;-2.00;92.60;;;;;;5060929;28;20502;-65
2024/01/11 07:41:34;;;;;;;51.07;19.57;;;-2.00;92.50;;;;;;5061626;28;20484;-64
2024/01/11 07:44:01;;;;;;;47.20;20.70;;;-2.00;92.70;;;;;;5066586;28;20537;-64
2024/01/11 07:46:28;;;;;;;53.73;19.50;;;-2.00;92.70;;;;;;5071363;28;20809;-64
2024/01/11 07:48:55;;;;;;;70.10;21.30;;;-2.00;92.80;;;;;;5066561;28;20483;-64
2024/01/11 07:51:23;;;;;;;35.57;17.37;;;-1.90;92.70;;;;;;5065206;28;20567;-63
2024/01/11 07:53:50;;;;;;;47.37;21.00;;;-1.80;92.70;;;;;;5070492;28;20848;-64
2024/01/11 07:56:17;;;;;;;65.30;22.07;;;-1.80;92.70;;;;;;5071918;28;20556;-64
2024/01/11 07:58:44;;;;;;;54.73;22.30;;;-1.70;92.70;;;;;;5065582;28;20475;-64
2024/01/11 08:01:12;;;;;;;44.43;22.13;;;-1.70;92.60;;;;;;5071373;28;20876;-64
2024/01/11 08:03:41;;;;;;;45.57;18.67;;;-1.60;92.60;;;;;;5069222;28;20535;-64
2024/01/11 08:06:09;;;;;;;49.60;23.37;;;-1.60;92.50;;;;;;5075220;28;20490;-66
2024/01/11 08:08:38;;;;;;;47.67;20.50;;;-1.60;92.50;;;;;;5065318;28;20877;-66
2024/01/11 08:11:05;;;;;;;57.93;22.40;;;-1.50;92.50;;;;;;5064888;28;20852;-66
2024/01/11 08:13:34;;;;;;;45.73;23.30;;;-1.50;92.40;;;;;;5069098;28;20540;-67
2024/01/11 08:16:03;;;;;;;47.70;20.70;;;-1.50;92.40;;;;;;5061386;28;20532;-66
2024/01/11 08:18:30;;;;;;;52.23;22.07;;;-1.40;92.50;;;;;;5069540;28;20475;-66
2024/01/11 08:20:57;;;;;;;64.30;21.90;;;-1.40;92.40;;;;;;5065978;28;20482;-66
2024/01/11 08:23:24;;;;;;;71.90;22.17;;;-1.20;92.40;;;;;;5061886;28;20489;-66
2024/01/11 08:25:53;;;;;;;52.53;22.00;;;-1.10;92.50;;;;;;5068100;28;20543;-66
2024/01/11 08:28:20;;;;;;;45.77;21.30;;;-0.80;92.50;;;;;;5070618;28;20534;-66
2024/01/11 08:30:47;;;;;;;55.97;23.80;;;0.20;94.20;;;;;;5065375;28;20486;-66
2024/01/11 08:33:14;;;;;;;50.27;23.07;;;;;;;;;;5063868;28;20483;-65
2024/01/11 08:35:42;;;;;;;48.90;24.10;;;2.30;92.90;;;;;;5076852;28;20473;-66
2024/01/11 08:38:09;;;;;;;53.60;24.00;;;;;;;;;;5077007;28;20482;-66
2024/01/11 08:40:36;;;;;;;49.40;25.03;;;4.60;90.10;;;;;;5063580;28;20483;-66
2024/01/11 08:43:07;;;;;;;42.03;24.17;;;4.80;90.30;;;;;;5067911;28;20492;-66
2024/01/11 08:45:34;;;;;;;51.10;24.70;;;6.00;83.80;;;;;;5059457;28;20478;-66
2024/01/11 08:48:01;;;;;;;47.87;25.33;;;6.30;82.90;;;;;;5070509;28;20486;-66
2024/01/11 08:50:28;;;;;;;64.40;27.93;;;6.60;82.40;;;;;;5071983;28;20646;-66
2024/01/11 08:52:55;;;;;;;47.33;26.60;;;7.10;80.00;;;;;;5049321;28;20595;-66
2024/01/11 08:55:22;;;;;;;46.30;26.50;;;7.20;79.20;;;;;;5081478;28;20497;-66
2024/01/11 08:57:48;;;;;;;92.43;32.20;;;7.20;77.80;;;;;;5073391;28;21618;-66
2024/01/11 09:00:17;;;;;;;52.20;27.43;;;7.10;77.00;;;;;;5068510;28;20860;-65
2024/01/11 09:02:45;;;;;;;46.60;27.73;;;7.30;77.70;;;;;;5076240;28;20474;-66
2024/01/11 09:05:12;;;;;;;68.17;30.30;;;7.20;76.40;;;;;;5068165;28;20478;-66
2024/01/11 09:07:39;;;;;;;56.73;28.60;;;;;;;;;;5075901;28;20899;-66
2024/01/11 09:10:09;;;;;;;45.23;24.73;;;7.10;76.60;;;;;;5078791;28;20482;-66
2024/01/11 09:12:36;;;;;;;47.93;27.90;;;7.10;77.30;;;;;;5068083;28;20474;-66
2024/01/11 09:15:03;;;;;;;53.27;29.13;;;6.80;76.40;;;;;;5069615;28;20969;-66
2024/01/11 09:17:32;;;;;;;57.23;27.73;;;6.80;77.60;;;;;;5076106;28;20471;-63
2024/01/11 09:19:59;;;;;;;48.43;25.90;;;6.80;77.50;;;;;;5069557;28;20479;-64
2024/01/11 09:22:26;;;;;;;57.80;30.03;;;6.70;77.90;;;;;;5039513;28;20483;-64
2024/01/11 09:24:53;;;;;;;47.80;30.37;;;6.50;77.30;;;;;;5071407;28;20478;-64
2024/01/11 09:27:20;;;;;;;51.53;28.23;;;6.30;78.20;;;;;;5075853;28;20902;-63
2024/01/11 09:29:47;;;;;;;55.33;28.27;;;6.20;78.40;;;;;;5053441;28;20487;-63
2024/01/11 09:32:14;;;;;;;89.30;30.33;;;5.90;79.50;;;;;;5076534;28;20486;-64
2024/01/11 09:34:41;;;;;;;42.73;26.60;;;5.70;79.00;;;;;;5073882;28;20544;-64
2024/01/11 09:37:08;;;;;;;49.83;29.50;;;5.50;79.40;;;;;;5070085;28;20474;-64
2024/01/11 09:39:35;;;;;;;72.63;28.17;;;5.40;80.10;;;;;;5062364;28;20532;-64
2024/01/11 09:42:09;;;;;;;47.17;25.80;;;5.20;80.40;;;;;;5063296;28;20535;-64
2024/01/11 09:44:37;;;;;;;46.10;26.87;;;5.20;80.40;;;;;;5073782;28;20525;-64
2024/01/11 09:47:06;;;;;;;52.43;27.40;;;5.10;81.30;;;;;;5059853;28;20482;-64
2024/01/11 09:49:34;;;;;;;47.33;25.03;;;5.10;81.90;;;;;;5063083;28;20498;-64
2024/01/11 09:52:03;;;;;;;44.57;27.73;;;5.10;82.00;;;;;;5064339;28;20490;-64
2024/01/11 09:54:31;;;;;;;44.10;22.87;;;5.10;82.10;;;;;;5062953;28;20482;-64
2024/01/11 09:57:00;;;;;;;43.97;25.00;;;5.10;82.00;;;;;;5030649;28;20750;-64
2024/01/11 09:59:28;;;;;;;45.40;23.53;;;;;;;;;;5062315;28;20511;-64
2024/01/11 10:01:55;;;;;;;45.60;24.07;;;5.20;83.20;;;;;;5067579;28;20478;-64
2024/01/11 10:04:21;;;;;;;43.33;19.47;;;5.30;82.00;;;;;;5078755;28;21128;-64
2024/01/11 10:06:51;;;;;;;52.93;23.80;;;5.30;82.20;;;;;;5066960;28;20544;-64
2024/01/11 10:09:19;;;;;;;42.90;22.00;;;5.30;81.40;;;;;;5068165;28;20539;-64
2024/01/11 10:11:46;;;;;;;40.70;22.70;;;5.30;81.80;;;;;;5066669;28;20502;-64
2024/01/11 10:14:13;;;;;;;36.70;19.80;;;5.20;81.90;;;;;;5068107;28;20989;-64
2024/01/11 10:16:42;;;;;;;50.97;25.43;;;5.20;82.20;;;;;;5073043;28;20555;-64
2024/01/11 10:19:10;;;;;;;39.27;21.20;;;5.20;82.00;;;;;;5053359;28;20479;-64
2024/01/11 10:21:40;;;;;;;43.73;24.10;;;5.30;81.90;;;;;;5039494;28;20554;-65
2024/01/11 10:24:07;;;;;;;35.13;17.00;;;5.30;81.70;;;;;;5064984;28;20535;-65
2024/01/11 10:26:37;;;;;;;46.13;22.50;;;5.30;80.90;;;;;;5050995;28;20485;-65
2024/01/11 10:29:10;;;;;;;42.63;24.70;;;5.20;80.80;;;;;;5061529;28;20763;-65
2024/01/11 10:31:37;;;;;;;48.47;22.00;;;5.20;81.00;;;;;;5034203;28;20529;-65
2024/01/11 10:34:05;;;;;;;46.43;18.40;;;5.20;81.40;;;;;;5022208;28;20532;-64
2024/01/11 10:36:32;;;;;;;42.00;23.97;;;5.30;83.10;;;;;;5038608;28;20483;-64
2024/01/11 10:39:02;;;;;;;53.87;22.37;;;5.40;82.30;;;;;;5066311;28;20478;-65
2024/01/11 10:41:33;;;;;;;49.50;19.60;;;5.40;81.70;;;;;;5058795;28;20913;-64
2024/01/11 10:44:04;;;;;;;50.80;24.80;;;5.60;83.00;;;;;;5042370;28;20482;-64
2024/01/11 10:46:33;;;;;;;47.70;26.57;;;5.60;82.80;;;;;;5037865;28;20471;-64
2024/01/11 10:49:03;;;;;;;46.57;23.70;;;5.90;83.40;;;;;;5019597;28;20561;-65
2024/01/11 10:51:33;;;;;;;47.70;23.83;;;6.00;82.80;;;;;;5053948;28;20535;-64
2024/01/11 10:54:01;;;;;;;42.90;22.03;;;6.10;82.10;;;;;;5041668;28;21098;-64
2024/01/11 10:56:29;;;;;;;40.30;23.10;;;6.10;81.20;;;;;;5061957;28;21100;-65
2024/01/11 10:58:57;;;;;;;42.90;24.77;;;6.00;80.70;;;;;;5069289;28;20482;-64
2024/01/11 11:01:26;;;;;;;46.67;25.60;;;6.10;81.80;;;;;;5047356;28;20470;-64
2024/01/11 11:03:55;;;;;;;58.97;26.30;;;6.10;81.10;;;;;;5057688;28;21098;-64
2024/01/11 11:06:24;;;;;;;43.83;24.83;;;6.30;81.60;;;;;;5043731;28;20510;-64
2024/01/11 11:08:53;;;;;;;56.33;25.80;;;6.30;81.50;;;;;;5034414;28;21215;-65
2024/01/11 11:11:21;;;;;;;44.60;24.87;;;6.40;81.00;;;;;;5028681;28;20558;-64
2024/01/11 11:13:49;;;;;;;51.97;25.43;;;6.40;80.00;;;;;;5057409;28;20536;-64
2024/01/11 11:16:16;;;;;;;46.73;25.03;;;6.50;80.80;;;;;;5065593;28;20634;-64
2024/01/11 11:18:45;;;;;;;51.33;25.20;;;6.50;80.70;;;;;;5052132;28;20934;-64
2024/01/11 11:21:12;;;;;;;45.03;25.13;;;6.60;81.20;;;;;;5034487;28;20479;-64
2024/01/11 11:23:39;;;;;;;56.77;25.70;;;6.60;80.70;;;;;;5069162;28;21065;-64
2024/01/11 11:26:08;;;;;;;48.43;23.10;;;6.60;79.80;;;;;;5071227;28;20817;-64
2024/01/11 11:28:36;;;;;;;40.50;21.57;;;6.60;79.90;;;;;;5015112;28;20567;-64
2024/01/11 11:31:04;;;;;;;49.70;25.17;;;6.70;79.50;;;;;;5066322;28;20518;-64
2024/01/11 11:33:31;;;;;;;35.67;20.70;;;6.60;79.70;;;;;;5063695;28;21040;-64
2024/01/11 11:36:00;;;;;;;69.67;23.93;;;6.60;78.80;;;;;;5065661;28;20470;-64
2024/01/11 11:38:29;;;;;;;46.43;25.13;;;6.50;78.70;;;;;;5032381;28;20548;-64
2024/01/11 11:40:58;;;;;;;57.87;26.30;;;6.40;79.10;;;;;;5064650;28;20485;-64
2024/01/11 11:43:26;;;;;;;57.30;25.60;;;6.50;79.80;;;;;;5033542;28;20571;-65
2024/01/11 11:45:54;;;;;;;45.10;21.87;;;6.60;80.10;;;;;;5048560;28;21012;-64
2024/01/11 11:48:52;;;;;;;47.13;24.87;;;6.70;80.00;;;;;;5032590;28;20585;-64
2024/01/11 11:51:21;;;;;;;47.13;22.37;;;6.80;80.60;;;;;;5041786;28;20490;-64
2024/01/11 11:53:49;;;;;;;46.07;24.20;;;6.90;80.20;;;;;;5031125;28;21240;-65
2024/01/11 11:56:18;;;;;;;36.73;19.27;;;6.90;79.10;;;;;;5035986;28;20477;-64
2024/01/11 11:58:46;;;;;;;45.40;25.90;;;6.80;78.80;;;;;;5039557;28;20552;-64
2024/01/11 12:01:17;;;;;;;53.60;26.07;;;6.80;78.90;;;;;;5018598;28;20517;-64
2024/01/11 12:03:48;;;;;;;83.80;23.77;;;6.80;78.60;;;;;;5039035;28;20467;-64
2024/01/11 12:06:16;;;;;;;49.17;27.20;;;6.80;79.60;;;;;;5022719;28;20468;-64
2024/01/11 12:08:45;;;;;;;42.03;23.60;;;6.80;79.60;;;;;;5033350;28;20475;-64
2024/01/11 12:11:15;;;;;;;61.70;26.43;;;7.10;80.40;;;;;;4999164;28;20500;-63
2024/01/11 12:13:44;;;;;;;60.43;24.00;;;7.20;79.00;;;;;;5040974;28;20483;-64
2024/01/11 12:16:11;;;;;;;45.30;25.97;;;7.20;77.80;;;;;;5033061;28;20479;-64
2024/01/11 12:18:38;;;;;;;55.77;27.40;;;7.20;78.10;;;;;;5038750;28;20572;-64
2024/01/11 12:21:05;;;;;;;44.53;24.43;;;7.40;79.40;;;;;;5026632;28;20479;-64
2024/01/11 12:23:33;;;;;;;45.50;25.30;;;7.30;77.70;;;;;;5047013;28;20494;-64
2024/01/11 12:26:02;;;;;;;56.27;25.70;;;7.50;78.70;;;;;;5037980;28;21282;-64
2024/01/11 12:28:29;;;;;;;41.77;24.90;;;7.50;78.10;;;;;;5042826;28;20552;-64
2024/01/11 12:30:56;;;;;;;51.00;24.30;;;7.40;76.80;;;;;;5024249;28;20470;-64
2024/01/11 12:33:23;;;;;;;50.63;24.17;;;7.40;77.50;;;;;;5044813;28;20472;-64
2024/01/11 12:35:50;;;;;;;46.33;27.50;;;7.50;78.50;;;;;;5043136;28;20483;-64